createdAt,value
2017-06-21T00:00:33.363Z,0
2017-06-21T00:01:33.425Z,0
2017-06-21T00:02:33.442Z,0
2017-06-21T00:03:33.450Z,0
2017-06-21T00:04:33.410Z,0
2017-06-21T00:05:33.456Z,0
2017-06-21T00:06:33.456Z,0
2017-06-21T00:07:33.451Z,0
2017-06-21T00:08:33.453Z,0
2017-06-21T00:09:33.358Z,0
2017-06-21T00:10:33.425Z,0
2017-06-21T00:11:33.407Z,0
2017-06-21T00:12:33.413Z,0
2017-06-21T00:13:33.369Z,0
2017-06-21T00:14:33.425Z,0
2017-06-21T00:15:33.447Z,0
2017-06-21T00:16:33.463Z,0
2017-06-21T00:17:33.370Z,0
2017-06-21T00:18:33.445Z,0
2017-06-21T00:19:33.370Z,0
2017-06-21T00:20:33.471Z,0
2017-06-21T00:21:33.453Z,0
2017-06-21T00:22:33.452Z,0
2017-06-21T00:23:33.431Z,0
2017-06-21T00:24:33.460Z,0
2017-06-21T00:25:33.452Z,0
2017-06-21T00:26:33.448Z,0
2017-06-21T00:27:33.476Z,0
2017-06-21T00:28:33.456Z,0
2017-06-21T00:29:33.445Z,0
2017-06-21T00:30:33.375Z,0
2017-06-21T00:31:33.398Z,0
2017-06-21T00:32:33.532Z,0
2017-06-21T00:33:33.457Z,0
2017-06-21T00:34:33.463Z,0
2017-06-21T00:35:33.446Z,0
2017-06-21T00:36:33.376Z,0
2017-06-21T00:37:33.379Z,0
2017-06-21T00:38:33.426Z,0
2017-06-21T00:39:33.475Z,0
2017-06-21T00:40:33.448Z,0
2017-06-21T00:41:33.375Z,0
2017-06-21T00:42:33.452Z,0
2017-06-21T00:43:33.390Z,0
2017-06-21T00:44:33.466Z,0
2017-06-21T00:45:33.476Z,0
2017-06-21T00:46:33.386Z,0
2017-06-21T00:47:33.460Z,0
2017-06-21T00:48:33.466Z,0
2017-06-21T00:49:33.466Z,0
2017-06-21T00:50:33.404Z,0
2017-06-21T00:51:33.477Z,0
2017-06-21T00:52:33.388Z,0
2017-06-21T00:53:33.467Z,0
2017-06-21T00:54:33.476Z,0
2017-06-21T00:55:33.477Z,0
2017-06-21T00:56:33.440Z,0
2017-06-21T00:57:33.440Z,0
2017-06-21T00:58:33.441Z,0
2017-06-21T00:59:33.444Z,0
2017-06-21T01:00:33.443Z,0
2017-06-21T01:01:33.445Z,0
2017-06-21T01:02:33.443Z,0
2017-06-21T01:03:33.447Z,0
2017-06-21T01:04:33.445Z,0
2017-06-21T01:05:33.447Z,0
2017-06-21T01:06:33.479Z,0
2017-06-21T01:07:33.397Z,0
2017-06-21T01:08:33.472Z,0
2017-06-21T01:09:33.481Z,0
2017-06-21T01:10:33.473Z,0
2017-06-21T01:11:33.477Z,0
2017-06-21T01:12:33.478Z,0
2017-06-21T01:13:33.395Z,0
2017-06-21T01:14:33.446Z,0
2017-06-21T01:15:33.477Z,0
2017-06-21T01:16:33.466Z,0
2017-06-21T01:17:33.470Z,0
2017-06-21T01:18:33.546Z,0
2017-06-21T01:19:33.472Z,0
2017-06-21T01:20:33.482Z,0
2017-06-21T01:21:33.482Z,0
2017-06-21T01:22:33.472Z,0
2017-06-21T01:23:33.381Z,0
2017-06-21T01:24:33.471Z,0
2017-06-21T01:25:33.473Z,0
2017-06-21T01:26:33.446Z,0
2017-06-21T01:27:33.486Z,0
2017-06-21T01:28:33.406Z,0
2017-06-21T01:29:33.409Z,0
2017-06-21T01:30:33.491Z,0
2017-06-21T01:31:33.492Z,0
2017-06-21T01:32:33.502Z,0
2017-06-21T01:33:33.484Z,0
2017-06-21T01:34:33.493Z,0
2017-06-21T01:36:33.451Z,0
2017-06-21T01:37:33.493Z,0
2017-06-21T01:38:33.503Z,0
2017-06-21T01:39:33.457Z,0
2017-06-21T01:40:33.480Z,0
2017-06-21T01:41:33.499Z,0
2017-06-21T01:42:33.489Z,0
2017-06-21T01:43:33.489Z,0
2017-06-21T01:44:33.494Z,0
2017-06-21T01:45:33.467Z,0
2017-06-21T01:46:33.496Z,0
2017-06-21T01:47:33.482Z,0
2017-06-21T01:48:33.464Z,0
2017-06-21T01:49:33.483Z,0
2017-06-21T01:50:33.487Z,0
2017-06-21T01:51:33.483Z,0
2017-06-21T01:52:33.487Z,0
2017-06-21T01:53:33.483Z,0
2017-06-21T01:54:33.485Z,0
2017-06-21T01:55:33.482Z,0
2017-06-21T01:56:33.425Z,0
2017-06-21T01:57:33.468Z,0
2017-06-21T01:58:33.423Z,0
2017-06-21T01:59:33.494Z,0
2017-06-21T02:00:33.515Z,0
2017-06-21T02:01:33.427Z,0
2017-06-21T02:02:33.617Z,0
2017-06-21T02:03:33.506Z,0
2017-06-21T02:04:33.417Z,0
2017-06-21T02:05:33.509Z,0
2017-06-21T02:06:33.398Z,0
2017-06-21T02:07:33.377Z,0
2017-06-21T02:08:33.400Z,0
2017-06-21T02:09:33.453Z,0
2017-06-21T02:10:33.454Z,0
2017-06-21T02:11:33.397Z,0
2017-06-21T02:12:33.371Z,0
2017-06-21T02:13:33.419Z,0
2017-06-21T02:14:33.436Z,0
2017-06-21T02:15:33.403Z,0
2017-06-21T02:16:33.518Z,0
2017-06-21T02:17:33.518Z,0
2017-06-21T02:18:33.515Z,0
2017-06-21T02:19:33.516Z,0
2017-06-21T02:20:33.452Z,0
2017-06-21T02:21:33.486Z,0
2017-06-21T02:22:33.476Z,0
2017-06-21T02:23:33.434Z,0
2017-06-21T02:24:33.436Z,0
2017-06-21T02:25:33.520Z,0
2017-06-21T02:26:33.515Z,0
2017-06-21T02:27:33.522Z,0
2017-06-21T02:28:33.508Z,0
2017-06-21T02:29:33.521Z,0
2017-06-21T02:30:33.518Z,0
2017-06-21T02:31:33.484Z,0
2017-06-21T02:32:33.439Z,0
2017-06-21T02:33:33.537Z,0
2017-06-21T02:34:33.524Z,0
2017-06-21T02:35:33.449Z,0
2017-06-21T02:36:33.511Z,0
2017-06-21T02:37:33.516Z,0
2017-06-21T02:38:33.527Z,0
2017-06-21T02:39:33.527Z,0
2017-06-21T02:40:33.558Z,0
2017-06-21T02:41:33.531Z,0
2017-06-21T02:42:33.491Z,0
2017-06-21T02:43:33.449Z,0
2017-06-21T02:44:33.533Z,0
2017-06-21T02:45:33.524Z,0
2017-06-21T02:46:33.536Z,0
2017-06-21T02:47:33.531Z,0
2017-06-21T02:48:33.447Z,0
2017-06-21T02:49:33.449Z,0
2017-06-21T02:50:33.528Z,0
2017-06-21T02:51:33.446Z,0
2017-06-21T02:52:33.533Z,0
2017-06-21T02:53:33.537Z,0
2017-06-21T02:54:33.499Z,0
2017-06-21T02:55:33.529Z,0
2017-06-21T02:56:33.522Z,0
2017-06-21T02:57:33.506Z,0
2017-06-21T02:58:33.509Z,0
2017-06-21T02:59:33.507Z,0
2017-06-21T03:00:33.511Z,0
2017-06-21T03:01:33.509Z,0
2017-06-21T03:02:33.509Z,0
2017-06-21T03:03:33.509Z,0
2017-06-21T03:04:33.510Z,0
2017-06-21T03:05:33.509Z,0
2017-06-21T03:06:33.512Z,0
2017-06-21T03:07:33.526Z,0
2017-06-21T03:08:33.527Z,0
2017-06-21T03:09:33.478Z,0
2017-06-21T03:10:33.528Z,0
2017-06-21T03:11:33.530Z,0
2017-06-21T03:12:33.448Z,0
2017-06-21T03:13:33.531Z,0
2017-06-21T03:14:33.530Z,0
2017-06-21T03:15:33.547Z,0
2017-06-21T03:16:33.531Z,0
2017-06-21T03:17:33.528Z,0
2017-06-21T03:18:33.529Z,0
2017-06-21T03:19:33.536Z,0
2017-06-21T03:20:33.630Z,0
2017-06-21T03:21:33.531Z,0
2017-06-21T03:22:33.460Z,0
2017-06-21T03:23:33.538Z,0
2017-06-21T03:24:33.531Z,0
2017-06-21T03:25:33.535Z,0
2017-06-21T03:26:33.532Z,0
2017-06-21T03:27:33.552Z,0
2017-06-21T03:28:33.475Z,0
2017-06-21T03:29:33.657Z,0
2017-06-21T03:30:33.469Z,0
2017-06-21T03:31:33.472Z,0
2017-06-21T03:32:33.559Z,0
2017-06-21T03:33:33.469Z,0
2017-06-21T03:34:33.515Z,0
2017-06-21T03:35:33.472Z,0
2017-06-21T03:36:33.565Z,0
2017-06-21T03:37:33.535Z,0
2017-06-21T03:38:33.571Z,0
2017-06-21T03:39:33.475Z,0
2017-06-21T03:40:33.552Z,0
2017-06-21T03:41:33.562Z,0
2017-06-21T03:42:33.556Z,0
2017-06-21T03:43:33.554Z,0
2017-06-21T03:44:33.572Z,0
2017-06-21T03:45:33.548Z,0
2017-06-21T03:46:33.565Z,0
2017-06-21T03:47:33.563Z,0
2017-06-21T03:48:33.570Z,0
2017-06-21T03:49:33.559Z,0
2017-06-21T03:50:33.567Z,0
2017-06-21T03:51:33.573Z,0
2017-06-21T03:52:33.479Z,0
2017-06-21T03:53:33.480Z,13
2017-06-21T03:54:33.569Z,16
2017-06-21T03:55:33.541Z,16
2017-06-21T03:56:33.524Z,16
2017-06-21T03:57:33.488Z,17
2017-06-21T03:58:33.562Z,18
2017-06-21T03:59:33.574Z,18
2017-06-21T04:00:33.490Z,20
2017-06-21T04:01:33.567Z,18
2017-06-21T04:02:33.571Z,19
2017-06-21T04:03:33.490Z,19
2017-06-21T04:04:33.581Z,20
2017-06-21T04:05:33.491Z,21
2017-06-21T04:06:33.575Z,21
2017-06-21T04:07:33.581Z,22
2017-06-21T04:08:33.569Z,21
2017-06-21T04:09:33.578Z,21
2017-06-21T04:10:33.571Z,22
2017-06-21T04:11:33.576Z,23
2017-06-21T04:12:33.538Z,24
2017-06-21T04:13:33.639Z,24
2017-06-21T04:14:33.497Z,24
2017-06-21T04:15:33.491Z,25
2017-06-21T04:16:33.496Z,26
2017-06-21T04:17:33.528Z,27
2017-06-21T04:18:33.463Z,26
2017-06-21T04:19:33.532Z,27
2017-06-21T04:20:33.537Z,28
2017-06-21T04:21:33.496Z,28
2017-06-21T04:22:33.587Z,29
2017-06-21T04:23:33.487Z,29
2017-06-21T04:24:33.544Z,30
2017-06-21T04:25:33.474Z,30
2017-06-21T04:26:33.478Z,31
2017-06-21T04:27:33.579Z,31
2017-06-21T04:28:33.585Z,31
2017-06-21T04:29:33.590Z,32
2017-06-21T04:30:33.582Z,33
2017-06-21T04:31:33.591Z,33
2017-06-21T04:32:33.596Z,33
2017-06-21T04:33:33.506Z,33
2017-06-21T04:34:33.580Z,35
2017-06-21T04:35:33.565Z,36
2017-06-21T04:36:33.569Z,35
2017-06-21T04:37:33.593Z,33
2017-06-21T04:38:33.589Z,36
2017-06-21T04:39:33.510Z,35
2017-06-21T04:40:33.517Z,33
2017-06-21T04:41:33.594Z,33
2017-06-21T04:42:33.572Z,36
2017-06-21T04:43:33.611Z,38
2017-06-21T04:44:33.511Z,33
2017-06-21T04:45:33.602Z,38
2017-06-21T04:46:33.507Z,38
2017-06-21T04:47:33.577Z,39
2017-06-21T04:48:33.575Z,40
2017-06-21T04:49:33.578Z,40
2017-06-21T04:50:33.578Z,40
2017-06-21T04:51:33.574Z,37
2017-06-21T04:52:33.578Z,41
2017-06-21T04:53:33.578Z,41
2017-06-21T04:54:33.578Z,42
2017-06-21T04:55:33.584Z,42
2017-06-21T04:56:33.579Z,43
2017-06-21T04:57:33.603Z,42
2017-06-21T04:58:33.581Z,42
2017-06-21T04:59:33.525Z,44
2017-06-21T05:00:33.593Z,44
2017-06-21T05:01:33.706Z,45
2017-06-21T05:02:33.512Z,45
2017-06-21T05:03:33.606Z,46
2017-06-21T05:04:33.604Z,46
2017-06-21T05:05:33.607Z,46
2017-06-21T05:06:33.606Z,47
2017-06-21T05:07:33.573Z,47
2017-06-21T05:08:33.574Z,48
2017-06-21T05:09:33.576Z,47
2017-06-21T05:10:33.576Z,47
2017-06-21T05:11:33.578Z,48
2017-06-21T05:12:33.581Z,49
2017-06-21T05:13:33.579Z,49
2017-06-21T05:14:33.576Z,49
2017-06-21T05:15:33.581Z,48
2017-06-21T05:16:33.585Z,49
2017-06-21T05:17:33.587Z,49
2017-06-21T05:18:33.618Z,50
2017-06-21T05:19:33.615Z,50
2017-06-21T05:20:33.527Z,50
2017-06-21T05:21:33.525Z,50
2017-06-21T05:22:33.533Z,51
2017-06-21T05:23:33.626Z,52
2017-06-21T05:24:33.538Z,53
2017-06-21T05:25:33.609Z,53
2017-06-21T05:26:33.595Z,54
2017-06-21T05:27:33.619Z,53
2017-06-21T05:28:33.600Z,47
2017-06-21T05:29:33.600Z,52
2017-06-21T05:30:33.706Z,55
2017-06-21T05:31:33.604Z,56
2017-06-21T05:32:33.604Z,55
2017-06-21T05:33:33.604Z,49
2017-06-21T05:34:33.606Z,49
2017-06-21T05:35:33.604Z,57
2017-06-21T05:36:33.543Z,56
2017-06-21T05:37:33.604Z,56
2017-06-21T05:38:33.605Z,56
2017-06-21T05:39:33.606Z,57
2017-06-21T05:40:33.609Z,54
2017-06-21T05:41:33.608Z,59
2017-06-21T05:42:33.613Z,59
2017-06-21T05:43:33.610Z,59
2017-06-21T05:44:33.610Z,59
2017-06-21T05:45:33.608Z,59
2017-06-21T05:46:33.609Z,58
2017-06-21T05:47:33.610Z,61
2017-06-21T05:48:33.608Z,61
2017-06-21T05:49:33.607Z,62
2017-06-21T05:50:33.611Z,62
2017-06-21T05:51:33.611Z,61
2017-06-21T05:52:33.610Z,63
2017-06-21T05:53:33.613Z,64
2017-06-21T05:54:33.533Z,64
2017-06-21T05:55:33.581Z,65
2017-06-21T05:56:33.535Z,66
2017-06-21T05:57:33.536Z,66
2017-06-21T05:58:33.531Z,66
2017-06-21T05:59:33.536Z,69
2017-06-21T06:00:33.532Z,69
2017-06-21T06:01:33.576Z,69
2017-06-21T06:02:33.682Z,70
2017-06-21T06:03:33.620Z,71
2017-06-21T06:04:33.616Z,60
2017-06-21T06:05:33.621Z,62
2017-06-21T06:06:33.619Z,73
2017-06-21T06:07:33.620Z,74
2017-06-21T06:08:33.623Z,75
2017-06-21T06:09:33.619Z,76
2017-06-21T06:10:33.622Z,74
2017-06-21T06:11:33.623Z,77
2017-06-21T06:12:33.643Z,77
2017-06-21T06:13:33.591Z,77
2017-06-21T06:14:33.629Z,79
2017-06-21T06:15:33.593Z,80
2017-06-21T06:16:33.551Z,79
2017-06-21T06:17:33.543Z,81
2017-06-21T06:18:33.589Z,82
2017-06-21T06:19:33.587Z,82
2017-06-21T06:20:33.608Z,83
2017-06-21T06:21:33.587Z,83
2017-06-21T06:22:33.556Z,142
2017-06-21T06:23:33.596Z,167
2017-06-21T06:24:33.618Z,177
2017-06-21T06:25:33.619Z,180
2017-06-21T06:26:33.617Z,181
2017-06-21T06:27:33.620Z,181
2017-06-21T06:28:33.619Z,212
2017-06-21T06:29:33.620Z,219
2017-06-21T06:30:33.620Z,224
2017-06-21T06:31:33.622Z,225
2017-06-21T06:32:33.623Z,227
2017-06-21T06:33:33.626Z,215
2017-06-21T06:34:33.589Z,216
2017-06-21T06:35:33.607Z,230
2017-06-21T06:36:33.544Z,270
2017-06-21T06:37:33.593Z,286
2017-06-21T06:38:33.608Z,317
2017-06-21T06:39:33.600Z,318
2017-06-21T06:40:33.556Z,318
2017-06-21T06:41:33.600Z,326
2017-06-21T06:42:33.560Z,329
2017-06-21T06:43:33.612Z,333
2017-06-21T06:44:33.580Z,338
2017-06-21T06:45:33.658Z,354
2017-06-21T06:46:33.666Z,380
2017-06-21T06:47:33.642Z,386
2017-06-21T06:48:33.643Z,387
2017-06-21T06:49:33.623Z,374
2017-06-21T06:50:33.584Z,336
2017-06-21T06:51:33.667Z,326
2017-06-21T06:52:33.664Z,375
2017-06-21T06:53:33.665Z,409
2017-06-21T06:54:33.645Z,436
2017-06-21T06:55:33.646Z,462
2017-06-21T06:56:33.648Z,477
2017-06-21T06:57:33.648Z,472
2017-06-21T06:58:33.648Z,445
2017-06-21T06:59:33.651Z,439
2017-06-21T07:00:33.651Z,448
2017-06-21T07:01:33.651Z,523
2017-06-21T07:02:33.633Z,532
2017-06-21T07:03:33.655Z,542
2017-06-21T07:04:33.688Z,562
2017-06-21T07:05:33.673Z,570
2017-06-21T07:06:33.671Z,569
2017-06-21T07:07:33.665Z,560
2017-06-21T07:08:33.647Z,562
2017-06-21T07:09:33.637Z,560
2017-06-21T07:10:33.672Z,601
2017-06-21T07:11:33.651Z,591
2017-06-21T07:12:33.653Z,604
2017-06-21T07:13:33.598Z,580
2017-06-21T07:14:33.657Z,612
2017-06-21T07:15:33.654Z,637
2017-06-21T07:16:33.684Z,626
2017-06-21T07:17:33.660Z,606
2017-06-21T07:18:33.658Z,643
2017-06-21T07:19:33.659Z,632
2017-06-21T07:20:33.663Z,579
2017-06-21T07:21:33.661Z,487
2017-06-21T07:22:33.662Z,638
2017-06-21T07:23:33.662Z,693
2017-06-21T07:24:33.682Z,714
2017-06-21T07:25:33.681Z,722
2017-06-21T07:26:33.606Z,718
2017-06-21T07:27:33.661Z,720
2017-06-21T07:28:33.663Z,698
2017-06-21T07:29:33.606Z,700
2017-06-21T07:30:33.663Z,679
2017-06-21T07:31:33.686Z,732
2017-06-21T07:32:33.602Z,743
2017-06-21T07:33:33.605Z,751
2017-06-21T07:34:33.666Z,564
2017-06-21T07:35:33.605Z,721
2017-06-21T07:36:33.683Z,732
2017-06-21T07:37:33.680Z,754
2017-06-21T07:38:33.693Z,747
2017-06-21T07:39:33.607Z,753
2017-06-21T07:40:33.690Z,756
2017-06-21T07:41:33.607Z,731
2017-06-21T07:42:33.694Z,761
2017-06-21T07:43:33.607Z,757
2017-06-21T07:44:33.691Z,771
2017-06-21T07:45:33.603Z,784
2017-06-21T07:46:33.688Z,782
2017-06-21T07:47:33.683Z,775
2017-06-21T07:48:33.610Z,770
2017-06-21T07:49:33.612Z,758
2017-06-21T07:50:33.696Z,773
2017-06-21T07:51:33.668Z,791
2017-06-21T07:52:33.655Z,792
2017-06-21T07:53:33.701Z,802
2017-06-21T07:54:33.645Z,803
2017-06-21T07:55:33.598Z,805
2017-06-21T07:56:33.599Z,811
2017-06-21T07:57:33.746Z,809
2017-06-21T07:58:33.647Z,812
2017-06-21T07:59:33.642Z,817
2017-06-21T08:00:33.602Z,819
2017-06-21T08:01:33.604Z,820
2017-06-21T08:02:33.603Z,822
2017-06-21T08:03:33.695Z,823
2017-06-21T08:04:33.662Z,813
2017-06-21T08:05:33.706Z,811
2017-06-21T08:06:33.703Z,809
2017-06-21T08:07:33.678Z,770
2017-06-21T08:08:33.712Z,777
2017-06-21T08:09:33.706Z,819
2017-06-21T08:10:33.687Z,800
2017-06-21T08:11:33.709Z,833
2017-06-21T08:12:33.668Z,835
2017-06-21T08:13:33.708Z,846
2017-06-21T08:14:33.619Z,852
2017-06-21T08:15:33.714Z,854
2017-06-21T08:16:33.691Z,851
2017-06-21T08:17:33.630Z,852
2017-06-21T08:18:33.638Z,850
2017-06-21T08:19:33.633Z,819
2017-06-21T08:20:33.628Z,850
2017-06-21T08:21:33.715Z,834
2017-06-21T08:22:33.632Z,858
2017-06-21T08:23:33.695Z,864
2017-06-21T08:24:33.633Z,855
2017-06-21T08:25:33.715Z,836
2017-06-21T08:26:33.680Z,847
2017-06-21T08:27:33.716Z,844
2017-06-21T08:28:33.717Z,850
2017-06-21T08:29:33.639Z,868
2017-06-21T08:30:33.693Z,867
2017-06-21T08:31:33.718Z,868
2017-06-21T08:32:33.724Z,872
2017-06-21T08:33:33.715Z,871
2017-06-21T08:34:33.715Z,882
2017-06-21T08:35:33.700Z,886
2017-06-21T08:36:33.643Z,887
2017-06-21T08:37:33.727Z,894
2017-06-21T08:38:33.727Z,897
2017-06-21T08:39:33.647Z,898
2017-06-21T08:40:33.661Z,900
2017-06-21T08:41:33.725Z,899
2017-06-21T08:42:33.640Z,901
2017-06-21T08:43:33.727Z,890
2017-06-21T08:44:33.726Z,895
2017-06-21T08:45:33.727Z,891
2017-06-21T08:46:33.650Z,902
2017-06-21T08:47:33.651Z,903
2017-06-21T08:48:33.639Z,909
2017-06-21T08:49:33.649Z,911
2017-06-21T08:50:33.712Z,908
2017-06-21T08:51:33.725Z,911
2017-06-21T08:52:33.642Z,915
2017-06-21T08:53:33.697Z,911
2017-06-21T08:54:33.740Z,910
2017-06-21T08:55:33.734Z,920
2017-06-21T08:56:33.740Z,923
2017-06-21T08:57:33.650Z,930
2017-06-21T08:58:33.744Z,930
2017-06-21T08:59:33.657Z,944
2017-06-21T09:00:33.729Z,945
2017-06-21T09:01:33.744Z,948
2017-06-21T09:02:33.649Z,933
2017-06-21T09:03:33.728Z,872
2017-06-21T09:04:33.713Z,895
2017-06-21T09:05:33.654Z,926
2017-06-21T09:06:33.740Z,893
2017-06-21T09:07:33.740Z,932
2017-06-21T09:08:33.742Z,934
2017-06-21T09:09:33.743Z,938
2017-06-21T09:10:33.740Z,958
2017-06-21T09:11:33.657Z,964
2017-06-21T09:12:33.739Z,958
2017-06-21T09:13:33.750Z,960
2017-06-21T09:14:33.656Z,959
2017-06-21T09:15:33.743Z,955
2017-06-21T09:16:33.743Z,957
2017-06-21T09:17:33.735Z,957
2017-06-21T09:18:33.654Z,945
2017-06-21T09:19:33.661Z,957
2017-06-21T09:20:33.746Z,960
2017-06-21T09:21:33.706Z,965
2017-06-21T09:22:33.725Z,968
2017-06-21T09:23:33.656Z,970
2017-06-21T09:24:33.674Z,969
2017-06-21T09:25:33.663Z,971
2017-06-21T09:26:33.750Z,973
2017-06-21T09:27:33.672Z,973
2017-06-21T09:28:33.671Z,971
2017-06-21T09:29:33.846Z,972
2017-06-21T09:30:33.733Z,972
2017-06-21T09:31:33.732Z,971
2017-06-21T09:32:33.753Z,974
2017-06-21T09:33:33.667Z,978
2017-06-21T09:34:33.735Z,978
2017-06-21T09:35:33.661Z,984
2017-06-21T09:36:33.738Z,985
2017-06-21T09:37:33.739Z,987
2017-06-21T09:38:33.733Z,991
2017-06-21T09:39:33.739Z,991
2017-06-21T09:40:33.743Z,980
2017-06-21T09:41:33.738Z,995
2017-06-21T09:42:33.744Z,1000
2017-06-21T09:43:33.742Z,997
2017-06-21T09:44:33.739Z,1000
2017-06-21T09:45:33.741Z,1006
2017-06-21T09:46:33.740Z,1001
2017-06-21T09:47:33.739Z,1001
2017-06-21T09:48:33.824Z,1011
2017-06-21T09:49:33.744Z,1001
2017-06-21T09:50:33.746Z,1013
2017-06-21T09:51:33.749Z,1001
2017-06-21T09:52:33.756Z,986
2017-06-21T09:53:33.745Z,1036
2017-06-21T09:54:33.706Z,1028
2017-06-21T09:55:33.763Z,1002
2017-06-21T09:56:33.772Z,934
2017-06-21T09:57:33.767Z,749
2017-06-21T09:58:33.681Z,936
2017-06-21T09:59:33.691Z,991
2017-06-21T10:00:33.689Z,1034
2017-06-21T10:01:33.757Z,1033
2017-06-21T10:02:33.693Z,1022
2017-06-21T10:03:33.724Z,1013
2017-06-21T10:04:33.770Z,1018
2017-06-21T10:05:33.679Z,1033
2017-06-21T10:06:33.780Z,1030
2017-06-21T10:07:33.689Z,1034
2017-06-21T10:08:33.732Z,1034
2017-06-21T10:09:33.764Z,995
2017-06-21T10:10:33.682Z,968
2017-06-21T10:11:33.777Z,974
2017-06-21T10:12:33.694Z,1034
2017-06-21T10:13:33.776Z,1037
2017-06-21T10:14:33.751Z,1043
2017-06-21T10:15:33.738Z,999
2017-06-21T10:16:33.700Z,1038
2017-06-21T10:17:33.739Z,1026
2017-06-21T10:18:33.781Z,1034
2017-06-21T10:19:33.780Z,1048
2017-06-21T10:20:33.892Z,1049
2017-06-21T10:21:33.779Z,1053
2017-06-21T10:22:33.697Z,1052
2017-06-21T10:23:33.772Z,1067
2017-06-21T10:24:33.764Z,847
2017-06-21T10:25:33.769Z,1038
2017-06-21T10:26:33.768Z,1059
2017-06-21T10:27:33.763Z,1055
2017-06-21T10:28:33.768Z,1061
2017-06-21T10:29:33.766Z,1055
2017-06-21T10:30:33.765Z,1057
2017-06-21T10:31:33.782Z,1060
2017-06-21T10:32:33.767Z,1067
2017-06-21T10:33:33.856Z,1062
2017-06-21T10:34:33.767Z,1050
2017-06-21T10:35:33.768Z,1042
2017-06-21T10:36:33.766Z,1050
2017-06-21T10:37:33.769Z,1055
2017-06-21T10:38:33.770Z,1061
2017-06-21T10:39:33.695Z,1021
2017-06-21T10:40:33.771Z,1022
2017-06-21T10:41:33.770Z,1017
2017-06-21T10:42:33.774Z,1000
2017-06-21T10:43:33.773Z,989
2017-06-21T10:44:33.790Z,1015
2017-06-21T10:45:33.792Z,1012
2017-06-21T10:46:33.793Z,1013
2017-06-21T10:47:33.790Z,1027
2017-06-21T10:48:33.779Z,1041
2017-06-21T10:49:33.713Z,1064
2017-06-21T10:50:33.714Z,1053
2017-06-21T10:51:33.775Z,1062
2017-06-21T10:52:33.790Z,1050
2017-06-21T10:53:33.717Z,1049
2017-06-21T10:54:33.795Z,1010
2017-06-21T10:55:33.756Z,1052
2017-06-21T10:56:33.789Z,1060
2017-06-21T10:57:33.759Z,1041
2017-06-21T10:58:33.762Z,1050
2017-06-21T10:59:33.802Z,915
2017-06-21T11:00:33.768Z,1045
2017-06-21T11:01:33.808Z,1029
2017-06-21T11:02:33.803Z,1044
2017-06-21T11:03:33.912Z,1040
2017-06-21T11:04:33.804Z,1025
2017-06-21T11:05:33.804Z,1036
2017-06-21T11:06:33.807Z,1045
2017-06-21T11:07:33.807Z,1049
2017-06-21T11:08:33.787Z,1042
2017-06-21T11:09:33.763Z,1048
2017-06-21T11:10:33.817Z,1043
2017-06-21T11:11:33.723Z,1053
2017-06-21T11:12:33.732Z,1048
2017-06-21T11:13:33.787Z,1058
2017-06-21T11:14:33.817Z,1077
2017-06-21T11:15:33.719Z,1083
2017-06-21T11:16:33.810Z,1074
2017-06-21T11:17:33.815Z,1098
2017-06-21T11:18:33.722Z,1119
2017-06-21T11:19:33.813Z,1111
2017-06-21T11:20:33.807Z,1093
2017-06-21T11:21:33.729Z,1101
2017-06-21T11:22:33.791Z,1040
2017-06-21T11:23:33.810Z,886
2017-06-21T11:24:33.733Z,854
2017-06-21T11:25:33.813Z,1009
2017-06-21T11:26:33.814Z,995
2017-06-21T11:27:33.816Z,864
2017-06-21T11:28:33.734Z,866
2017-06-21T11:29:33.822Z,879
2017-06-21T11:30:33.788Z,998
2017-06-21T11:31:33.825Z,988
2017-06-21T11:32:33.809Z,1028
2017-06-21T11:33:33.798Z,1041
2017-06-21T11:34:33.790Z,1034
2017-06-21T11:35:33.791Z,1039
2017-06-21T11:36:33.784Z,876
2017-06-21T11:37:33.819Z,931
2017-06-21T11:38:33.789Z,935
2017-06-21T11:39:33.791Z,1060
2017-06-21T11:40:33.790Z,1034
2017-06-21T11:41:33.793Z,1093
2017-06-21T11:42:33.794Z,1029
2017-06-21T11:43:33.793Z,992
2017-06-21T11:44:33.792Z,1076
2017-06-21T11:45:33.794Z,1013
2017-06-21T11:46:33.793Z,1106
2017-06-21T11:47:33.793Z,1120
2017-06-21T11:48:33.793Z,1104
2017-06-21T11:49:33.795Z,1123
2017-06-21T11:50:33.796Z,1146
2017-06-21T11:51:33.796Z,1125
2017-06-21T11:52:33.798Z,1128
2017-06-21T11:53:33.796Z,1107
2017-06-21T11:54:33.800Z,951
2017-06-21T11:55:33.833Z,627
2017-06-21T11:56:33.746Z,773
2017-06-21T11:57:33.751Z,939
2017-06-21T11:58:33.739Z,876
2017-06-21T11:59:33.746Z,954
2017-06-21T12:00:33.837Z,1031
2017-06-21T12:01:33.792Z,1056
2017-06-21T12:02:33.833Z,1066
2017-06-21T12:03:33.845Z,1046
2017-06-21T12:04:33.744Z,1033
2017-06-21T12:05:33.815Z,962
2017-06-21T12:06:33.816Z,996
2017-06-21T12:07:33.818Z,971
2017-06-21T12:08:33.819Z,977
2017-06-21T12:09:33.816Z,987
2017-06-21T12:10:33.818Z,1007
2017-06-21T12:11:33.816Z,1002
2017-06-21T12:12:33.819Z,941
2017-06-21T12:13:33.822Z,1058
2017-06-21T12:14:33.821Z,1034
2017-06-21T12:15:33.810Z,1049
2017-06-21T12:16:33.810Z,1000
2017-06-21T12:17:33.811Z,966
2017-06-21T12:18:33.812Z,985
2017-06-21T12:19:33.816Z,1012
2017-06-21T12:20:33.812Z,1010
2017-06-21T12:21:33.817Z,1001
2017-06-21T12:22:33.819Z,1026
2017-06-21T12:23:33.821Z,911
2017-06-21T12:24:33.820Z,912
2017-06-21T12:25:33.818Z,828
2017-06-21T12:26:33.814Z,747
2017-06-21T12:27:33.815Z,855
2017-06-21T12:28:33.814Z,902
2017-06-21T12:29:33.814Z,843
2017-06-21T12:30:33.819Z,832
2017-06-21T12:31:33.816Z,845
2017-06-21T12:32:33.822Z,908
2017-06-21T12:33:33.820Z,854
2017-06-21T12:34:33.820Z,900
2017-06-21T12:35:33.751Z,825
2017-06-21T12:36:33.811Z,826
2017-06-21T12:37:33.763Z,922
2017-06-21T12:38:33.859Z,1002
2017-06-21T12:39:33.748Z,988
2017-06-21T12:40:33.843Z,1028
2017-06-21T12:41:33.842Z,923
2017-06-21T12:42:33.798Z,1001
2017-06-21T12:43:33.795Z,956
2017-06-21T12:44:33.865Z,944
2017-06-21T12:45:33.798Z,978
2017-06-21T12:46:33.753Z,956
2017-06-21T12:47:33.754Z,944
2017-06-21T12:48:33.796Z,986
2017-06-21T12:49:33.801Z,979
2017-06-21T12:50:33.764Z,968
2017-06-21T12:51:33.810Z,978
2017-06-21T12:52:33.810Z,960
2017-06-21T12:53:33.745Z,930
2017-06-21T12:54:33.867Z,946
2017-06-21T12:55:33.789Z,930
2017-06-21T12:56:33.784Z,976
2017-06-21T12:57:33.868Z,1006
2017-06-21T12:58:33.789Z,1049
2017-06-21T12:59:33.843Z,1022
2017-06-21T13:00:33.869Z,1033
2017-06-21T13:01:33.827Z,1049
2017-06-21T13:02:33.868Z,1054
2017-06-21T13:03:33.868Z,1039
2017-06-21T13:04:33.868Z,1033
2017-06-21T13:05:33.837Z,1016
2017-06-21T13:06:33.841Z,1048
2017-06-21T13:07:33.835Z,1055
2017-06-21T13:08:33.841Z,1052
2017-06-21T13:09:33.841Z,1025
2017-06-21T13:10:33.844Z,1003
2017-06-21T13:11:33.842Z,1011
2017-06-21T13:12:33.844Z,1005
2017-06-21T13:13:33.842Z,980
2017-06-21T13:14:33.842Z,954
2017-06-21T13:15:33.790Z,955
2017-06-21T13:16:33.796Z,937
2017-06-21T13:17:33.877Z,980
2017-06-21T13:18:33.876Z,962
2017-06-21T13:19:33.795Z,899
2017-06-21T13:20:33.895Z,894
2017-06-21T13:21:33.799Z,934
2017-06-21T13:22:33.789Z,894
2017-06-21T13:23:33.881Z,791
2017-06-21T13:24:33.800Z,934
2017-06-21T13:25:33.871Z,924
2017-06-21T13:26:33.839Z,889
2017-06-21T13:27:33.879Z,864
2017-06-21T13:28:33.800Z,874
2017-06-21T13:29:33.894Z,789
2017-06-21T13:30:33.891Z,564
2017-06-21T13:31:33.802Z,642
2017-06-21T13:32:33.862Z,706
2017-06-21T13:33:33.803Z,881
2017-06-21T13:34:33.847Z,963
2017-06-21T13:35:33.891Z,952
2017-06-21T13:36:33.847Z,937
2017-06-21T13:37:33.865Z,927
2017-06-21T13:38:33.899Z,924
2017-06-21T13:39:33.808Z,918
2017-06-21T13:40:33.882Z,935
2017-06-21T13:41:33.886Z,932
2017-06-21T13:42:33.810Z,949
2017-06-21T13:43:33.850Z,953
2017-06-21T13:44:33.812Z,930
2017-06-21T13:45:33.864Z,927
2017-06-21T13:46:33.859Z,928
2017-06-21T13:47:33.864Z,909
2017-06-21T13:48:33.862Z,893
2017-06-21T13:49:33.891Z,881
2017-06-21T13:50:33.861Z,904
2017-06-21T13:51:33.865Z,911
2017-06-21T13:52:33.864Z,908
2017-06-21T13:53:33.865Z,895
2017-06-21T13:54:33.868Z,924
2017-06-21T13:55:33.867Z,877
2017-06-21T13:56:33.868Z,865
2017-06-21T13:57:33.866Z,886
2017-06-21T13:58:33.869Z,904
2017-06-21T13:59:33.868Z,906
2017-06-21T14:00:33.867Z,914
2017-06-21T14:01:33.869Z,901
2017-06-21T14:02:33.870Z,876
2017-06-21T14:03:33.873Z,866